createdAt,value
2023-04-19T00:01:09.118Z,11.37
2023-04-19T00:06:40.512Z,11.2
2023-04-19T00:12:16.606Z,10.98
2023-04-19T00:17:48.354Z,11.12
2023-04-19T00:23:27.198Z,10.92
2023-04-19T00:28:58.911Z,11.03
2023-04-19T00:34:30.454Z,10.89
2023-04-19T00:40:02.246Z,10.89
2023-04-19T00:45:34.497Z,10.95
2023-04-19T00:51:05.683Z,11.06
2023-04-19T00:56:37.357Z,11.0
2023-04-19T01:02:09.359Z,11.06
2023-04-19T01:07:41.008Z,11.23
2023-04-19T01:13:17.168Z,11.2
2023-04-19T01:18:48.628Z,11.05
2023-04-19T01:24:20.387Z,10.96
2023-04-19T01:29:52.854Z,11.06
2023-04-19T01:35:24.008Z,10.94
2023-04-19T01:40:55.844Z,10.8
2023-04-19T01:46:28.400Z,10.94
2023-04-19T01:51:59.589Z,11.12
2023-04-19T01:57:30.732Z,11.2
2023-04-19T02:03:02.602Z,11.29
2023-04-19T02:08:34.300Z,11.28
2023-04-19T02:14:10.464Z,11.33
2023-04-19T02:19:42.108Z,11.3
2023-04-19T02:25:13.736Z,11.32
2023-04-19T02:30:45.424Z,11.3
2023-04-19T02:36:17.216Z,11.24
2023-04-19T02:47:20.663Z,11.15
2023-04-19T02:52:52.503Z,10.97
2023-04-19T02:58:24.219Z,11.09
2023-04-19T03:03:55.931Z,11.0
2023-04-19T03:09:27.711Z,11.12
2023-04-19T03:15:03.634Z,11.11
2023-04-19T03:20:35.393Z,11.07
2023-04-19T03:26:07.146Z,11.14
2023-04-19T03:31:39.305Z,11.14
2023-04-19T03:37:10.808Z,11.09
2023-04-19T03:42:42.430Z,11.1
2023-04-19T03:48:14.094Z,11.07
2023-04-19T03:53:45.989Z,11.02
2023-04-19T03:59:17.698Z,11.1
2023-04-19T04:04:49.380Z,10.97
2023-04-19T04:10:20.931Z,10.92
2023-04-19T04:15:57.240Z,10.8
2023-04-19T04:21:28.871Z,10.52
2023-04-19T04:27:00.427Z,10.46
2023-04-19T04:32:32.594Z,10.38
2023-04-19T04:38:08.481Z,10.3
2023-04-19T04:43:35.634Z,10.36
2023-04-19T04:49:07.399Z,10.31
2023-04-19T04:54:39.071Z,10.26
2023-04-19T05:00:10.932Z,10.42
2023-04-19T05:05:44.421Z,10.42
2023-04-19T05:11:14.851Z,10.5
2023-04-19T05:16:52.592Z,10.37
2023-04-19T05:22:24.254Z,10.54
2023-04-19T05:27:55.960Z,10.46
2023-04-19T05:33:27.665Z,10.39
2023-04-19T05:38:59.271Z,10.6
2023-04-19T05:44:31.138Z,10.24
2023-04-19T05:50:02.735Z,10.59
2023-04-19T05:55:34.605Z,10.65
2023-04-19T06:01:06.339Z,10.47
2023-04-19T06:06:38.246Z,10.22
2023-04-19T06:12:10.006Z,10.68
2023-04-19T06:17:46.002Z,10.46
2023-04-19T06:23:17.670Z,10.57
2023-04-19T06:28:49.207Z,10.4
2023-04-19T06:34:20.914Z,10.57
2023-04-19T06:39:52.688Z,10.69
2023-04-19T06:45:24.626Z,10.68
2023-04-19T06:50:56.246Z,10.61
2023-04-19T06:56:27.958Z,11.07
2023-04-19T07:01:59.608Z,10.79
2023-04-19T07:07:31.834Z,10.83
2023-04-19T07:13:03.279Z,10.93
2023-04-19T07:18:39.063Z,11.31
2023-04-19T07:24:10.863Z,11.39
2023-04-19T07:29:43.367Z,11.33
2023-04-19T07:35:14.238Z,11.17
2023-04-19T07:40:46.188Z,11.31
2023-04-19T07:46:17.777Z,11.7
2023-04-19T07:51:49.439Z,11.97
2023-04-19T07:57:21.189Z,12.01
2023-04-19T08:02:53.276Z,12.1
2023-04-19T08:08:24.673Z,12.34
2023-04-19T08:14:06.591Z,12.48
2023-04-19T08:19:34.723Z,11.99
2023-04-19T08:25:07.102Z,12.02
2023-04-19T08:30:37.958Z,12.17
2023-04-19T08:36:09.826Z,12.49
2023-04-19T08:41:41.718Z,12.46
2023-04-19T08:47:17.682Z,12.22
2023-04-19T08:58:26.687Z,12.73
2023-04-19T09:04:00.987Z,12.34
2023-04-19T09:09:33.911Z,12.68
2023-04-19T09:20:29.993Z,12.43
2023-04-19T09:31:47.722Z,12.39
2023-04-19T09:37:13.377Z,13.08
2023-04-19T09:42:55.365Z,13.11
2023-04-19T09:48:08.583Z,13.12
2023-04-19T09:53:40.179Z,13.11
2023-04-19T09:59:20.182Z,13.16
2023-04-19T10:10:42.244Z,13.33
2023-04-19T10:16:19.323Z,12.98
2023-04-19T10:21:48.348Z,13.1
2023-04-19T10:27:20.185Z,13.45
2023-04-19T10:32:51.871Z,13.29
2023-04-19T10:38:23.423Z,13.26
2023-04-19T10:43:55.352Z,13.18
2023-04-19T10:49:26.852Z,13.31
2023-04-19T10:54:58.753Z,13.3
2023-04-19T11:00:30.358Z,13.36
2023-04-19T11:06:02.945Z,13.58
2023-04-19T11:11:34.033Z,13.6
2023-04-19T11:17:05.604Z,13.16
2023-04-19T11:22:41.689Z,12.91
2023-04-19T11:28:13.472Z,13.11
2023-04-19T11:33:45.244Z,12.98
2023-04-19T11:39:16.803Z,13.03
2023-04-19T11:44:49.091Z,12.81
2023-04-19T11:50:20.226Z,12.71
2023-04-19T11:55:52.218Z,12.74
2023-04-19T12:01:23.865Z,12.4
2023-04-19T12:06:55.734Z,12.44
2023-04-19T12:12:27.104Z,12.0
2023-04-19T12:17:59.088Z,12.18
2023-04-19T12:23:35.342Z,11.94
2023-04-19T12:29:06.696Z,11.55
2023-04-19T12:34:38.615Z,11.94
2023-04-19T12:40:10.145Z,12.0
2023-04-19T12:45:42.140Z,12.24
2023-04-19T12:51:13.566Z,12.36
2023-04-19T12:57:10.322Z,12.06
2023-04-19T13:02:42.578Z,12.28
2023-04-19T13:08:14.910Z,12.07
2023-04-19T13:13:45.708Z,11.99
2023-04-19T13:19:17.501Z,12.06
2023-04-19T13:24:53.396Z,12.06
2023-04-19T13:30:25.571Z,11.84
2023-04-19T13:35:56.765Z,11.98
2023-04-19T13:41:28.521Z,12.34
2023-04-19T13:47:00.547Z,12.15
2023-04-19T13:52:32.146Z,12.3
2023-04-19T13:58:03.924Z,12.14
2023-04-19T14:03:35.721Z,12.32
2023-04-19T14:09:07.366Z,12.43
2023-04-19T14:14:38.848Z,12.17
2023-04-19T14:20:10.751Z,12.57
2023-04-19T14:25:49.192Z,12.27
2023-04-19T14:31:20.431Z,12.19
2023-04-19T14:36:53.192Z,12.5
2023-04-19T14:42:23.823Z,12.79
2023-04-19T14:47:55.720Z,13.09
2023-04-19T14:53:27.453Z,13.0
2023-04-19T14:58:59.160Z,12.76
2023-04-19T15:04:30.766Z,12.75
2023-04-19T15:10:03.921Z,12.71
2023-04-19T15:15:35.608Z,12.71
2023-04-19T15:21:06.655Z,12.01
2023-04-19T15:26:44.234Z,12.62
2023-04-19T15:32:13.941Z,12.68
2023-04-19T15:37:45.462Z,12.53
2023-04-19T15:43:17.490Z,12.47
2023-04-19T15:48:48.859Z,12.7
2023-04-19T15:54:20.852Z,12.95
2023-04-19T15:59:52.745Z,12.99
2023-04-19T16:05:24.470Z,13.31
2023-04-19T16:10:56.071Z,13.39
2023-04-19T16:16:27.741Z,13.48
2023-04-19T16:21:59.250Z,13.39
2023-04-19T16:27:35.741Z,13.22
2023-04-19T16:33:07.170Z,12.97
2023-04-19T16:38:38.789Z,13.12
2023-04-19T16:44:10.485Z,12.97
2023-04-19T16:49:42.497Z,12.96
2023-04-19T16:55:14.232Z,13.0
2023-04-19T17:00:45.687Z,12.69
2023-04-19T17:06:17.589Z,12.43
2023-04-19T17:11:49.295Z,12.31
2023-04-19T17:17:21.222Z,12.18
2023-04-19T17:22:52.724Z,12.23
2023-04-19T17:28:30.644Z,12.06
2023-04-19T17:34:02.399Z,11.85
2023-04-19T17:39:34.374Z,11.93
2023-04-19T17:45:05.824Z,11.77
2023-04-19T17:50:37.746Z,11.5
2023-04-19T17:56:09.276Z,11.64
2023-04-19T18:01:41.015Z,11.62
2023-04-19T18:07:13.200Z,11.56
2023-04-19T18:12:44.452Z,11.37
2023-04-19T18:18:16.199Z,11.09
2023-04-19T18:23:48.020Z,11.13
2023-04-19T18:29:24.306Z,11.24
2023-04-19T18:34:55.920Z,11.04
2023-04-19T18:40:27.520Z,10.63
2023-04-19T18:45:59.471Z,10.49
2023-04-19T18:51:31.014Z,10.47
2023-04-19T18:57:18.924Z,10.29
2023-04-19T19:02:34.541Z,9.94
2023-04-19T19:08:06.537Z,10.01
2023-04-19T19:13:37.824Z,9.86
2023-04-19T19:19:09.511Z,9.84
2023-04-19T19:24:41.627Z,9.77
2023-04-19T19:30:17.522Z,9.51
2023-04-19T19:35:49.065Z,9.47
2023-04-19T19:46:52.498Z,9.11
2023-04-19T19:52:24.212Z,8.93
2023-04-19T20:03:36.696Z,8.2
2023-04-19T20:08:59.707Z,8.2
2023-04-19T20:14:31.059Z,8.02
2023-04-19T20:20:02.817Z,7.93
2023-04-19T20:25:34.577Z,7.8
2023-04-19T20:31:12.831Z,7.77
2023-04-19T20:36:44.762Z,7.65
2023-04-19T20:42:16.480Z,7.51
2023-04-19T20:47:47.915Z,7.35
2023-04-19T20:53:19.603Z,7.36
2023-04-19T20:58:51.470Z,7.12
2023-04-19T21:04:23.092Z,7.03
2023-04-19T21:09:54.994Z,7.06
2023-04-19T21:15:26.471Z,7.25
2023-04-19T21:20:59.137Z,7.32
2023-04-19T21:26:29.871Z,7.34
2023-04-19T21:32:08.023Z,7.35
2023-04-19T21:37:39.875Z,7.29
2023-04-19T21:43:11.446Z,7.21
2023-04-19T21:48:43.219Z,6.93
2023-04-19T21:54:23.313Z,6.73
2023-04-19T21:59:46.620Z,6.49
2023-04-19T22:05:18.308Z,6.38
2023-04-19T22:10:50.249Z,6.41
2023-04-19T22:16:22.119Z,6.42
2023-04-19T22:21:53.651Z,6.49
2023-04-19T22:27:25.190Z,6.46
2023-04-19T22:33:01.454Z,6.53
2023-04-19T22:38:33.088Z,6.5
2023-04-19T22:44:05.021Z,6.5
2023-04-19T22:49:36.468Z,6.47
2023-04-19T22:55:09.328Z,6.45
2023-04-19T23:00:40.158Z,6.41
2023-04-19T23:06:11.857Z,6.28
2023-04-19T23:11:43.371Z,6.23
2023-04-19T23:17:15.065Z,6.17
2023-04-19T23:22:46.933Z,6.12
2023-04-19T23:28:18.560Z,6.08
2023-04-19T23:33:54.636Z,6.0
2023-04-19T23:39:26.386Z,6.0
2023-04-19T23:44:58.429Z,5.99
2023-04-19T23:50:29.913Z,5.98
2023-04-19T23:56:01.818Z,6.02
